createdAt,value
2023-04-02T00:00:32.665Z,96.10
2023-04-02T00:02:38.544Z,96.20
2023-04-02T00:04:43.639Z,96.10
2023-04-02T00:06:49.424Z,96.10
2023-04-02T00:08:56.448Z,96.00
2023-04-02T00:11:04.629Z,96.10
2023-04-02T00:13:28.349Z,96.10
2023-04-02T00:15:34.469Z,96.10
2023-04-02T00:17:39.749Z,96.00
2023-04-02T00:19:52.500Z,96.00
2023-04-02T00:22:00.014Z,96.00
2023-04-02T00:24:13.630Z,96.00
2023-04-02T00:26:31.965Z,96.00
2023-04-02T00:28:40.116Z,95.90
2023-04-02T00:30:52.360Z,95.90
2023-04-02T00:32:58.057Z,95.90
2023-04-02T00:35:04.346Z,95.90
2023-04-02T00:37:09.665Z,95.90
2023-04-02T00:39:22.769Z,95.90
2023-04-02T00:41:36.333Z,96.00
2023-04-02T00:43:50.871Z,96.00
2023-04-02T00:46:01.444Z,96.00
2023-04-02T00:48:23.925Z,96.00
2023-04-02T00:50:35.998Z,95.90
2023-04-02T00:52:43.445Z,96.00
2023-04-02T00:54:55.307Z,96.10
2023-04-02T00:57:01.589Z,96.10
2023-04-02T00:59:23.842Z,96.10
2023-04-02T01:01:34.411Z,96.20
2023-04-02T01:03:41.333Z,96.20
2023-04-02T01:05:50.395Z,96.30
2023-04-02T01:08:10.319Z,96.10
2023-04-02T01:10:37.440Z,96.10
2023-04-02T01:12:55.748Z,96.10
2023-04-02T01:15:14.190Z,95.90
2023-04-02T01:17:46.908Z,96.00
2023-04-02T01:20:36.790Z,95.90
2023-04-02T01:22:52.583Z,96.00
2023-04-02T01:25:00.877Z,96.00
2023-04-02T01:27:09.486Z,96.10
2023-04-02T01:29:20.055Z,96.10
2023-04-02T01:31:27.520Z,96.20
2023-04-02T01:33:37.178Z,96.20
2023-04-02T01:35:48.491Z,96.20
2023-04-02T01:38:02.267Z,96.30
2023-04-02T01:40:26.147Z,96.30
2023-04-02T01:42:38.957Z,96.30
2023-04-02T01:44:51.530Z,96.30
2023-04-02T01:46:58.988Z,96.30
2023-04-02T01:49:12.838Z,96.20
2023-04-02T01:51:31.250Z,96.30
2023-04-02T01:53:37.234Z,96.30
2023-04-02T01:55:47.691Z,96.30
2023-04-02T01:57:56.510Z,96.20
2023-04-02T02:00:13.592Z,96.20
2023-04-02T02:02:19.956Z,96.20
2023-04-02T02:04:25.333Z,96.10
2023-04-02T02:06:31.522Z,96.10
2023-04-02T02:08:42.611Z,96.20
2023-04-02T02:10:48.541Z,96.20
2023-04-02T02:12:54.093Z,96.20
2023-04-02T02:14:59.238Z,96.20
2023-04-02T02:17:13.727Z,96.30
2023-04-02T02:19:31.424Z,96.30
2023-04-02T02:21:43.338Z,96.40
2023-04-02T02:23:48.625Z,96.50
2023-04-02T02:25:53.755Z,96.50
2023-04-02T02:28:06.162Z,96.50
2023-04-02T02:30:19.038Z,96.60
2023-04-02T02:32:32.406Z,96.70
2023-04-02T02:34:44.378Z,96.60
2023-04-02T02:36:55.499Z,96.40
2023-04-02T02:39:07.463Z,96.50
2023-04-02T02:41:27.788Z,96.50
2023-04-02T02:43:37.812Z,96.40
2023-04-02T02:45:44.612Z,96.30
2023-04-02T02:47:55.718Z,96.40
2023-04-02T02:50:05.336Z,96.40
2023-04-02T02:52:20.206Z,96.40
2023-04-02T02:54:34.285Z,96.50
2023-04-02T02:56:45.058Z,96.50
2023-04-02T02:58:53.617Z,96.50
2023-04-02T03:01:03.294Z,96.50
2023-04-02T03:03:18.414Z,96.50
2023-04-02T03:05:30.664Z,96.40
2023-04-02T03:07:42.543Z,96.40
2023-04-02T03:09:56.524Z,96.30
2023-04-02T03:12:10.837Z,96.30
2023-04-02T03:14:27.469Z,96.00
2023-04-02T03:16:41.463Z,96.20
2023-04-02T03:18:56.384Z,96.20
2023-04-02T03:21:08.892Z,96.10
2023-04-02T03:23:21.331Z,96.00
2023-04-02T03:25:37.294Z,96.10
2023-04-02T03:27:48.423Z,95.90
2023-04-02T03:30:16.611Z,96.00
2023-04-02T03:32:26.497Z,96.00
2023-04-02T03:34:40.126Z,95.90
2023-04-02T03:36:54.109Z,95.80
2023-04-02T03:39:12.108Z,95.90
2023-04-02T03:41:24.732Z,95.90
2023-04-02T03:43:35.337Z,96.00
2023-04-02T03:45:46.884Z,96.00
2023-04-02T03:47:57.328Z,96.20
2023-04-02T03:50:11.456Z,96.10
2023-04-02T03:52:28.774Z,96.20
2023-04-02T03:54:36.820Z,96.10
2023-04-02T03:56:42.437Z,96.10
2023-04-02T03:58:58.771Z,96.20
2023-04-02T04:01:15.042Z,96.20
2023-04-02T04:03:24.188Z,96.10
2023-04-02T04:05:35.252Z,96.20
2023-04-02T04:07:45.445Z,96.60
2023-04-02T04:09:55.564Z,96.90
2023-04-02T04:12:17.237Z,96.80
2023-04-02T04:14:31.394Z,96.90
2023-04-02T04:16:47.866Z,97.00
2023-04-02T04:19:03.381Z,96.90
2023-04-02T04:21:30.120Z,97.00
2023-04-02T04:23:49.988Z,97.00
2023-04-02T04:26:05.602Z,96.90
2023-04-02T04:28:24.659Z,96.90
2023-04-02T04:30:42.199Z,97.10
2023-04-02T04:32:52.931Z,97.00
2023-04-02T04:35:08.566Z,97.00
2023-04-02T04:37:25.342Z,97.10
2023-04-02T04:39:43.194Z,97.10
2023-04-02T04:41:51.472Z,97.00
2023-04-02T04:44:07.087Z,96.90
2023-04-02T04:46:19.437Z,96.90
2023-04-02T04:48:30.014Z,96.90
2023-04-02T04:50:41.785Z,97.00
2023-04-02T04:52:50.442Z,97.00
2023-04-02T04:54:55.964Z,97.00
2023-04-02T04:57:08.293Z,97.00
2023-04-02T04:59:22.030Z,96.90
2023-04-02T05:01:36.776Z,97.00
2023-04-02T05:03:49.070Z,96.90
2023-04-02T05:05:55.709Z,96.90
2023-04-02T05:08:12.955Z,96.90
2023-04-02T05:10:28.053Z,96.90
2023-04-02T05:12:39.806Z,96.90
2023-04-02T05:14:56.750Z,96.90
2023-04-02T05:17:07.391Z,96.90
2023-04-02T05:19:20.591Z,96.90
2023-04-02T05:21:34.961Z,96.80
2023-04-02T05:23:51.972Z,96.80
2023-04-02T05:26:06.662Z,96.80
2023-04-02T05:28:22.528Z,96.90
2023-04-02T05:30:53.484Z,96.80
2023-04-02T05:33:08.092Z,96.80
2023-04-02T05:35:19.023Z,96.90
2023-04-02T05:37:28.997Z,96.90
2023-04-02T05:39:37.743Z,96.90
2023-04-02T05:41:47.639Z,96.80
2023-04-02T05:44:13.592Z,96.80
2023-04-02T05:46:21.737Z,96.90
2023-04-02T05:48:33.276Z,96.60
2023-04-02T05:50:46.195Z,96.70
2023-04-02T05:53:04.127Z,96.80
2023-04-02T05:55:32.225Z,96.80
2023-04-02T05:57:56.651Z,96.70
2023-04-02T06:00:18.976Z,96.50
2023-04-02T06:02:33.779Z,96.60
2023-04-02T06:04:44.920Z,96.60
2023-04-02T06:07:07.026Z,96.30
2023-04-02T06:09:18.316Z,96.40
2023-04-02T06:11:33.617Z,96.40
2023-04-02T06:13:41.597Z,96.40
2023-04-02T06:15:48.102Z,96.40
2023-04-02T06:18:11.979Z,96.50
2023-04-02T06:20:23.699Z,96.40
2023-04-02T06:22:39.207Z,96.40
2023-04-02T06:24:48.979Z,96.40
2023-04-02T06:27:02.659Z,96.20
2023-04-02T06:29:13.840Z,96.30
2023-04-02T06:31:30.665Z,96.30
2023-04-02T06:33:36.602Z,96.30
2023-04-02T06:35:46.889Z,96.20
2023-04-02T06:37:58.772Z,96.20
2023-04-02T06:40:20.872Z,96.00
2023-04-02T06:42:34.130Z,96.00
2023-04-02T06:44:46.717Z,95.60
2023-04-02T06:47:19.708Z,95.70
2023-04-02T06:49:36.499Z,95.60
2023-04-02T06:51:46.084Z,95.00
2023-04-02T06:53:53.867Z,95.10
2023-04-02T06:56:07.072Z,95.10
2023-04-02T06:58:18.046Z,95.20
2023-04-02T07:00:33.220Z,95.40
2023-04-02T07:02:42.640Z,95.00
2023-04-02T07:04:49.850Z,94.80
2023-04-02T07:06:57.096Z,94.70
2023-04-02T07:09:07.082Z,94.50
2023-04-02T07:11:20.642Z,94.00
2023-04-02T07:13:30.688Z,94.70
2023-04-02T07:15:37.604Z,94.00
2023-04-02T07:17:43.000Z,94.10
2023-04-02T07:19:49.826Z,94.10
2023-04-02T07:21:57.301Z,93.00
2023-04-02T07:24:06.317Z,94.00
2023-04-02T07:26:21.158Z,93.60
2023-04-02T07:28:26.576Z,93.20
2023-04-02T07:30:34.583Z,93.40
2023-04-02T07:32:39.622Z,94.00
2023-04-02T07:34:45.652Z,93.50
2023-04-02T07:36:50.759Z,92.80
2023-04-02T07:38:56.612Z,92.80
2023-04-02T07:41:07.380Z,92.20
2023-04-02T07:43:12.528Z,91.90
2023-04-02T07:45:18.405Z,92.00
2023-04-02T07:47:26.713Z,91.30
2023-04-02T07:49:32.034Z,92.30
2023-04-02T07:51:37.949Z,92.00
2023-04-02T07:53:43.100Z,91.90
2023-04-02T07:55:48.991Z,91.70
2023-04-02T07:57:57.483Z,91.40
2023-04-02T08:00:02.536Z,91.90
2023-04-02T08:02:26.565Z,91.50
2023-04-02T08:04:31.745Z,91.40
2023-04-02T08:06:36.855Z,91.80
2023-04-02T08:08:42.520Z,90.50
2023-04-02T08:10:48.570Z,90.80
2023-04-02T08:12:53.781Z,90.80
2023-04-02T08:14:59.136Z,90.40
2023-04-02T08:17:04.581Z,89.50
2023-04-02T08:19:12.310Z,91.30
2023-04-02T08:21:17.712Z,91.20
2023-04-02T08:23:22.847Z,90.80
2023-04-02T08:25:27.982Z,91.00
2023-04-02T08:27:33.123Z,91.20
2023-04-02T08:29:38.455Z,90.20
2023-04-02T08:31:43.843Z,90.60
2023-04-02T08:33:49.223Z,91.00
2023-04-02T08:35:57.104Z,91.50
2023-04-02T08:38:02.399Z,91.40
2023-04-02T08:40:10.229Z,90.10
2023-04-02T08:42:29.585Z,90.50
2023-04-02T08:44:53.156Z,91.60
2023-04-02T08:47:04.321Z,90.60
2023-04-02T08:49:17.217Z,91.70
2023-04-02T08:51:27.987Z,90.70
2023-04-02T08:53:38.176Z,91.10
2023-04-02T08:55:48.526Z,90.40
2023-04-02T08:58:03.714Z,90.00
2023-04-02T09:00:23.544Z,91.30
2023-04-02T09:02:41.057Z,89.70
2023-04-02T09:04:46.368Z,90.00
2023-04-02T09:06:58.136Z,89.80
2023-04-02T09:09:05.139Z,90.70
2023-04-02T09:11:21.939Z,88.80
2023-04-02T09:13:30.643Z,89.80
2023-04-02T09:15:38.829Z,88.60
2023-04-02T09:17:53.511Z,89.70
2023-04-02T09:20:05.701Z,89.20
2023-04-02T09:22:22.522Z,89.20
2023-04-02T09:24:28.010Z,88.90
2023-04-02T09:26:35.283Z,89.00
2023-04-02T09:28:40.827Z,88.10
2023-04-02T09:31:06.623Z,88.30
2023-04-02T09:33:13.292Z,86.50
2023-04-02T09:35:26.103Z,88.40
2023-04-02T09:37:45.739Z,88.10
2023-04-02T09:39:51.138Z,87.70
2023-04-02T09:42:05.522Z,86.90
2023-04-02T09:44:24.462Z,87.10
2023-04-02T09:46:30.788Z,87.60
2023-04-02T09:48:40.076Z,86.20
2023-04-02T09:50:46.815Z,85.50
2023-04-02T09:52:56.320Z,86.50
2023-04-02T09:55:24.441Z,87.60
2023-04-02T09:57:31.615Z,86.50
2023-04-02T09:59:38.225Z,87.70
2023-04-02T10:01:48.273Z,87.60
2023-04-02T10:03:55.061Z,86.20
2023-04-02T10:06:12.782Z,85.80
2023-04-02T10:08:28.316Z,87.10
2023-04-02T10:10:40.061Z,86.10
2023-04-02T10:12:47.148Z,86.40
2023-04-02T10:14:53.903Z,86.20
2023-04-02T10:17:01.990Z,86.20
2023-04-02T10:19:20.006Z,87.10
2023-04-02T10:21:29.364Z,86.50
2023-04-02T10:23:37.477Z,88.00
2023-04-02T10:25:51.390Z,86.70
2023-04-02T10:28:07.313Z,88.20
2023-04-02T10:30:26.955Z,86.50
2023-04-02T10:32:40.048Z,88.00
2023-04-02T10:34:53.188Z,87.40
2023-04-02T10:37:03.690Z,88.60
2023-04-02T10:39:19.909Z,87.90
2023-04-02T10:41:35.742Z,87.70
2023-04-02T10:44:19.574Z,86.70
2023-04-02T10:46:37.959Z,87.40
2023-04-02T10:48:54.547Z,86.80
2023-04-02T10:51:06.749Z,86.90
2023-04-02T10:53:18.209Z,86.50
2023-04-02T10:55:33.176Z,88.30
2023-04-02T10:57:41.771Z,86.80
2023-04-02T10:59:53.307Z,86.90
2023-04-02T11:02:02.078Z,87.30
2023-04-02T11:04:20.002Z,86.10
2023-04-02T11:06:29.868Z,85.70
2023-04-02T11:08:44.592Z,86.90
2023-04-02T11:11:04.347Z,86.00
2023-04-02T11:13:18.103Z,87.00
2023-04-02T11:15:23.828Z,85.80
2023-04-02T11:17:29.071Z,86.30
2023-04-02T11:19:36.140Z,86.90
2023-04-02T11:21:57.369Z,85.80
2023-04-02T11:24:05.144Z,86.40
2023-04-02T11:26:41.548Z,86.10
2023-04-02T11:28:46.861Z,85.50
2023-04-02T11:30:52.381Z,87.70
2023-04-02T11:33:23.563Z,86.80
2023-04-02T11:35:42.425Z,87.10
2023-04-02T11:37:51.490Z,86.40
2023-04-02T11:39:59.366Z,86.50
2023-04-02T11:42:25.106Z,86.20
2023-04-02T11:44:30.173Z,87.40
2023-04-02T11:46:48.639Z,87.30
2023-04-02T11:48:55.236Z,86.30
2023-04-02T11:51:04.743Z,87.20
2023-04-02T11:53:24.786Z,86.90
2023-04-02T11:55:35.589Z,87.10
2023-04-02T11:58:30.203Z,87.10
2023-04-02T12:00:56.394Z,86.40
2023-04-02T12:03:23.042Z,87.40
2023-04-02T12:05:36.711Z,87.70
2023-04-02T12:08:05.290Z,88.20
2023-04-02T12:10:21.021Z,87.20
2023-04-02T12:12:36.050Z,86.10
2023-04-02T12:14:51.459Z,87.50
2023-04-02T12:16:56.810Z,87.40
2023-04-02T12:19:03.843Z,87.50
2023-04-02T12:21:09.130Z,88.10
2023-04-02T12:23:24.962Z,87.00
2023-04-02T12:25:33.563Z,87.00
2023-04-02T12:27:39.035Z,88.60
2023-04-02T12:29:44.194Z,88.00
2023-04-02T12:31:52.193Z,88.50
2023-04-02T12:33:57.691Z,88.20
2023-04-02T12:36:05.015Z,88.20
2023-04-02T12:38:25.366Z,87.40
2023-04-02T12:40:31.570Z,87.40
2023-04-02T12:42:38.525Z,87.60
2023-04-02T12:44:52.262Z,86.70
2023-04-02T12:47:01.784Z,86.90
2023-04-02T12:49:11.164Z,87.50
2023-04-02T12:51:17.670Z,86.10
2023-04-02T12:53:27.285Z,86.40
2023-04-02T12:55:33.674Z,86.80
2023-04-02T12:57:42.766Z,86.30
2023-04-02T12:59:49.027Z,85.70
2023-04-02T13:02:04.270Z,86.50
2023-04-02T13:04:15.283Z,87.20
2023-04-02T13:06:27.283Z,85.70
2023-04-02T13:08:40.076Z,86.40
2023-04-02T13:10:46.940Z,86.00
2023-04-02T13:12:57.745Z,84.00
2023-04-02T13:15:06.024Z,85.20
2023-04-02T13:17:43.442Z,83.50
2023-04-02T13:19:49.180Z,83.00
2023-04-02T13:21:55.449Z,83.70
2023-04-02T13:24:01.101Z,83.70
2023-04-02T13:26:18.946Z,84.00
2023-04-02T13:28:24.730Z,84.60
2023-04-02T13:30:31.855Z,82.40
2023-04-02T13:32:37.402Z,83.40
2023-04-02T13:34:45.056Z,83.10
2023-04-02T13:36:50.842Z,82.00
2023-04-02T13:38:56.400Z,80.60
2023-04-02T13:41:01.471Z,80.70
2023-04-02T13:43:07.549Z,82.90
2023-04-02T13:45:24.711Z,81.10
2023-04-02T13:47:29.783Z,82.40
2023-04-02T13:49:35.282Z,82.80
2023-04-02T13:51:47.254Z,81.20
2023-04-02T13:53:57.072Z,81.60
2023-04-02T13:56:02.275Z,80.10
2023-04-02T13:58:08.153Z,81.20
2023-04-02T14:00:15.781Z,81.60
2023-04-02T14:02:25.350Z,81.40
2023-04-02T14:04:35.128Z,81.10
2023-04-02T14:07:17.212Z,79.70
2023-04-02T14:09:31.286Z,80.60
2023-04-02T14:11:50.575Z,81.10
2023-04-02T14:14:30.327Z,78.80
2023-04-02T14:17:07.961Z,78.30
2023-04-02T14:19:36.199Z,80.00
2023-04-02T14:21:54.446Z,78.10
2023-04-02T14:24:15.174Z,79.70
2023-04-02T14:26:29.952Z,79.80
2023-04-02T14:28:46.525Z,80.70
2023-04-02T14:31:01.673Z,79.10
2023-04-02T14:33:17.128Z,77.60
2023-04-02T14:35:30.437Z,80.10
2023-04-02T14:37:48.008Z,78.40
2023-04-02T14:40:06.588Z,77.00
2023-04-02T14:42:17.005Z,78.70
2023-04-02T14:44:27.038Z,79.60
2023-04-02T14:46:38.509Z,79.60
2023-04-02T14:48:54.513Z,79.60
2023-04-02T14:51:04.678Z,77.50
2023-04-02T14:53:24.340Z,78.30
2023-04-02T14:55:36.050Z,77.30
2023-04-02T14:57:49.275Z,75.60
2023-04-02T15:00:03.911Z,76.00
2023-04-02T15:02:19.657Z,76.60
2023-04-02T15:04:31.162Z,77.20
2023-04-02T15:06:40.700Z,76.60
2023-04-02T15:09:08.407Z,77.00
2023-04-02T15:11:19.761Z,76.50
2023-04-02T15:13:31.538Z,77.90
2023-04-02T15:15:46.196Z,79.20
2023-04-02T15:17:51.725Z,76.80
2023-04-02T15:20:11.950Z,78.00
2023-04-02T15:22:33.351Z,79.10
2023-04-02T15:24:53.438Z,78.10
2023-04-02T15:27:21.924Z,77.70
2023-04-02T15:29:47.013Z,77.50
2023-04-02T15:31:54.347Z,78.60
2023-04-02T15:34:20.099Z,78.50
2023-04-02T15:36:44.460Z,78.80
2023-04-02T15:38:58.699Z,78.00
2023-04-02T15:41:13.433Z,79.00
2023-04-02T15:43:26.079Z,78.20
2023-04-02T15:45:46.088Z,79.80
2023-04-02T15:48:18.126Z,79.00
2023-04-02T15:50:47.630Z,81.40
2023-04-02T15:53:04.127Z,78.20
2023-04-02T15:55:25.259Z,78.50
2023-04-02T15:58:15.960Z,78.30
2023-04-02T16:00:30.869Z,79.90
2023-04-02T16:02:58.476Z,78.20
2023-04-02T16:05:10.342Z,78.20
2023-04-02T16:07:32.066Z,78.90
2023-04-02T16:09:51.280Z,78.60
2023-04-02T16:12:02.711Z,79.80
2023-04-02T16:14:32.225Z,78.90
2023-04-02T16:16:38.874Z,79.00
2023-04-02T16:18:57.761Z,80.00
2023-04-02T16:21:06.065Z,79.90
2023-04-02T16:23:18.971Z,79.30
2023-04-02T16:25:29.729Z,79.30
2023-04-02T16:27:41.215Z,80.30
2023-04-02T16:30:11.376Z,80.10
2023-04-02T16:32:27.620Z,80.60
2023-04-02T16:34:47.243Z,79.20
2023-04-02T16:37:03.992Z,78.90
2023-04-02T16:39:24.305Z,79.10
2023-04-02T16:41:50.828Z,79.20
2023-04-02T16:44:08.118Z,79.30
2023-04-02T16:46:38.153Z,79.50
2023-04-02T16:48:53.046Z,79.60
2023-04-02T16:51:11.127Z,80.00
2023-04-02T16:53:34.013Z,81.00
2023-04-02T16:55:53.326Z,80.80
2023-04-02T16:58:14.237Z,78.40
2023-04-02T17:00:31.055Z,79.10
2023-04-02T17:02:55.192Z,80.30
2023-04-02T17:05:12.607Z,78.90
2023-04-02T17:07:38.064Z,79.50
2023-04-02T17:09:51.621Z,79.20
2023-04-02T17:12:03.477Z,80.00
2023-04-02T17:14:18.502Z,79.60
2023-04-02T17:16:30.225Z,79.20
2023-04-02T17:18:38.300Z,79.00
2023-04-02T17:20:44.054Z,78.70
2023-04-02T17:22:50.482Z,79.20
2023-04-02T17:25:00.920Z,79.60
2023-04-02T17:27:15.514Z,79.10
2023-04-02T17:29:26.095Z,79.50
2023-04-02T17:31:37.555Z,80.50
2023-04-02T17:33:45.417Z,79.70
2023-04-02T17:36:07.364Z,79.70
2023-04-02T17:38:22.605Z,79.80
2023-04-02T17:40:35.559Z,79.20
2023-04-02T17:42:53.049Z,79.20
2023-04-02T17:45:14.110Z,79.70
2023-04-02T17:47:26.038Z,78.60
2023-04-02T17:49:39.381Z,79.00
2023-04-02T17:51:54.707Z,79.20
2023-04-02T17:54:19.797Z,78.30
2023-04-02T17:56:58.237Z,77.40
2023-04-02T17:59:24.473Z,78.40
2023-04-02T18:01:37.590Z,78.20
2023-04-02T18:03:52.560Z,79.30
2023-04-02T18:06:06.730Z,78.70
2023-04-02T18:08:24.323Z,80.40
2023-04-02T18:10:40.968Z,79.60
2023-04-02T18:12:59.188Z,78.00
2023-04-02T18:15:34.476Z,78.00
2023-04-02T18:17:50.885Z,78.60
2023-04-02T18:20:05.683Z,78.50
2023-04-02T18:22:21.219Z,78.30
2023-04-02T18:24:57.398Z,78.00
2023-04-02T18:27:19.549Z,78.50
2023-04-02T18:29:37.360Z,78.50
2023-04-02T18:31:52.084Z,79.30
2023-04-02T18:34:34.778Z,78.60
2023-04-02T18:36:51.160Z,79.10
2023-04-02T18:39:04.795Z,79.20
2023-04-02T18:41:45.136Z,80.20
2023-04-02T18:44:09.151Z,80.50
2023-04-02T18:46:26.285Z,81.10
2023-04-02T18:48:43.580Z,81.60
2023-04-02T18:50:51.074Z,81.90
2023-04-02T18:52:56.461Z,82.40
2023-04-02T18:55:16.248Z,82.90
2023-04-02T18:57:28.360Z,82.60
2023-04-02T18:59:45.461Z,82.80
2023-04-02T19:01:54.086Z,83.90
2023-04-02T19:04:05.573Z,83.60
2023-04-02T19:06:19.238Z,84.70
2023-04-02T19:08:31.152Z,84.30
2023-04-02T19:10:44.584Z,84.90
2023-04-02T19:12:49.605Z,86.40
2023-04-02T19:14:56.079Z,85.70
2023-04-02T19:17:05.321Z,87.50
2023-04-02T19:19:20.514Z,87.70
2023-04-02T19:21:37.364Z,86.20
2023-04-02T19:24:03.205Z,85.10
2023-04-02T19:26:16.229Z,85.40
2023-04-02T19:28:31.390Z,85.20
2023-04-02T19:31:12.341Z,86.80
2023-04-02T19:33:35.310Z,87.10
2023-04-02T19:35:48.533Z,86.00
2023-04-02T19:38:05.742Z,87.20
2023-04-02T19:40:37.465Z,86.70
2023-04-02T19:42:51.213Z,88.10
2023-04-02T19:44:57.618Z,88.80
2023-04-02T19:47:02.757Z,88.40
2023-04-02T19:49:14.894Z,86.40
2023-04-02T19:51:19.958Z,86.90
2023-04-02T19:53:25.028Z,86.80
2023-04-02T19:55:30.219Z,87.40
2023-04-02T19:57:36.543Z,87.30
2023-04-02T19:59:44.973Z,87.70
2023-04-02T20:01:50.343Z,87.00
2023-04-02T20:03:55.599Z,86.70
2023-04-02T20:06:01.400Z,86.70
2023-04-02T20:08:06.933Z,86.60
2023-04-02T20:10:14.111Z,86.90
2023-04-02T20:12:19.140Z,87.80
2023-04-02T20:14:24.212Z,88.20
2023-04-02T20:16:33.049Z,88.80
2023-04-02T20:18:38.932Z,88.80
2023-04-02T20:20:44.266Z,88.80
2023-04-02T20:22:50.351Z,88.50
2023-04-02T20:24:55.608Z,90.50
2023-04-02T20:27:00.680Z,89.60
2023-04-02T20:29:06.121Z,88.60
2023-04-02T20:31:14.228Z,90.60
2023-04-02T20:33:25.330Z,89.80
2023-04-02T20:35:34.595Z,89.50
2023-04-02T20:37:41.049Z,90.30
2023-04-02T20:39:46.179Z,88.90
2023-04-02T20:41:51.928Z,89.70
2023-04-02T20:43:57.546Z,88.90
2023-04-02T20:46:05.001Z,89.60
2023-04-02T20:48:10.511Z,89.50
2023-04-02T20:50:18.547Z,91.00
2023-04-02T20:52:24.471Z,90.70
2023-04-02T20:54:29.491Z,90.20
2023-04-02T20:56:34.786Z,90.20
2023-04-02T20:58:41.115Z,89.80
2023-04-02T21:00:46.885Z,90.30
2023-04-02T21:02:51.927Z,90.10
2023-04-02T21:04:56.978Z,90.90
2023-04-02T21:07:04.920Z,91.50
2023-04-02T21:09:14.614Z,91.00
2023-04-02T21:11:22.007Z,90.30
2023-04-02T21:13:27.036Z,90.60
2023-04-02T21:15:32.060Z,90.90
2023-04-02T21:17:37.135Z,91.40
2023-04-02T21:19:42.621Z,91.20
2023-04-02T21:21:48.431Z,91.30
2023-04-02T21:24:01.940Z,90.60
2023-04-02T21:26:09.111Z,90.80
2023-04-02T21:28:14.147Z,90.80
2023-04-02T21:30:19.859Z,90.70
2023-04-02T21:32:25.633Z,90.90
2023-04-02T21:34:30.980Z,91.00
2023-04-02T21:36:37.987Z,91.20
2023-04-02T21:38:45.386Z,91.00
2023-04-02T21:40:53.249Z,91.00
2023-04-02T21:42:58.577Z,91.70
2023-04-02T21:45:03.928Z,91.20
2023-04-02T21:47:09.496Z,91.30
2023-04-02T21:49:16.799Z,91.40
2023-04-02T21:51:24.757Z,91.50
2023-04-02T21:53:30.034Z,91.20
2023-04-02T21:55:35.076Z,91.20
2023-04-02T21:59:46.894Z,91.10
2023-04-02T22:01:54.605Z,91.30
2023-04-02T22:04:01.431Z,90.60
2023-04-02T22:06:09.025Z,91.30
2023-04-02T22:08:14.273Z,91.00
2023-04-02T22:10:19.613Z,90.90
2023-04-02T22:12:25.225Z,91.60
2023-04-02T22:14:33.190Z,91.30
2023-04-02T22:16:39.956Z,91.50
2023-04-02T22:18:46.276Z,91.60
2023-04-02T22:20:51.281Z,91.20
2023-04-02T22:22:56.883Z,91.50
2023-04-02T22:25:03.165Z,91.20
2023-04-02T22:27:08.588Z,91.30
2023-04-02T22:29:13.930Z,91.30
2023-04-02T22:31:23.679Z,91.60
2023-04-02T22:33:29.038Z,91.70
2023-04-02T22:35:34.128Z,92.00
2023-04-02T22:37:39.455Z,92.10
2023-04-02T22:39:44.588Z,92.00
2023-04-02T22:41:49.598Z,92.10
2023-04-02T22:43:54.986Z,91.80
2023-04-02T22:46:00.313Z,91.80
2023-04-02T22:48:08.542Z,92.00
2023-04-02T22:50:14.143Z,91.70
2023-04-02T22:52:19.378Z,92.10
2023-04-02T22:54:24.436Z,92.00
2023-04-02T22:56:33.019Z,92.10
2023-04-02T22:58:39.799Z,92.10
2023-04-02T23:00:45.136Z,91.90
2023-04-02T23:02:50.336Z,92.10
2023-04-02T23:04:57.970Z,91.90
2023-04-02T23:07:03.342Z,91.60
2023-04-02T23:09:08.831Z,91.70
2023-04-02T23:11:16.891Z,91.80
2023-04-02T23:13:22.351Z,92.30
2023-04-02T23:15:27.410Z,91.50
2023-04-02T23:17:32.682Z,92.20
2023-04-02T23:19:38.006Z,92.50
2023-04-02T23:21:45.985Z,92.10
2023-04-02T23:23:52.612Z,92.10
2023-04-02T23:26:07.582Z,92.20
2023-04-02T23:28:15.393Z,92.00
2023-04-02T23:30:20.948Z,92.30
2023-04-02T23:32:26.856Z,91.90
2023-04-02T23:34:31.968Z,92.10
2023-04-02T23:36:38.501Z,92.30
2023-04-02T23:38:46.475Z,92.10
2023-04-02T23:40:51.946Z,91.70
2023-04-02T23:42:56.991Z,91.00
2023-04-02T23:45:02.043Z,91.50
2023-04-02T23:47:07.273Z,90.80
2023-04-02T23:49:14.435Z,90.60
2023-04-02T23:51:20.021Z,89.20
2023-04-02T23:53:25.073Z,89.40
2023-04-02T23:55:32.672Z,88.10
2023-04-02T23:57:37.741Z,86.00
2023-04-02T23:59:43.109Z,86.30
